createdAt,value
2017-04-28T00:00:02.848Z,0.32
2017-04-28T00:00:07.043Z,0.31
2017-04-28T00:00:11.396Z,0.32
2017-04-28T00:00:15.700Z,0.31
2017-04-28T00:00:20.133Z,0.31
2017-04-28T00:00:24.559Z,0.32
2017-04-28T00:00:28.993Z,0.32
2017-04-28T00:00:33.416Z,0.32
2017-04-28T00:00:37.840Z,0.31
2017-04-28T00:00:42.265Z,0.3
2017-04-28T00:00:46.694Z,0.31
2017-04-28T00:00:51.120Z,0.32
2017-04-28T00:00:55.550Z,0.32
2017-04-28T00:00:59.857Z,0.31
2017-04-28T00:01:04.535Z,0.31
2017-04-28T00:01:08.959Z,0.32
2017-04-28T00:01:13.383Z,0.31
2017-04-28T00:01:17.695Z,0.31
2017-04-28T00:01:22.131Z,0.31
2017-04-28T00:01:26.442Z,0.31
2017-04-28T00:01:30.871Z,0.31
2017-04-28T00:01:35.308Z,0.31
2017-04-28T00:01:39.737Z,0.31
2017-04-28T00:01:44.164Z,0.31
2017-04-28T00:01:48.485Z,0.32
2017-04-28T00:01:52.919Z,0.31
2017-04-28T00:01:57.340Z,0.31
2017-04-28T00:02:01.919Z,0.31
2017-04-28T00:02:06.236Z,0.31
2017-04-28T00:02:10.668Z,0.32
2017-04-28T00:02:14.746Z,0.31
2017-04-28T00:02:19.180Z,0.31
2017-04-28T00:02:23.618Z,0.31
2017-04-28T00:02:27.930Z,0.3
2017-04-28T00:02:32.362Z,0.31
2017-04-28T00:02:36.798Z,0.31
2017-04-28T00:02:41.239Z,0.31
2017-04-28T00:02:45.671Z,0.31
2017-04-28T00:02:50.104Z,0.31
2017-04-28T00:02:54.543Z,0.31
2017-04-28T00:02:58.977Z,0.31
2017-04-28T00:03:03.412Z,0.31
2017-04-28T00:03:07.730Z,0.31
2017-04-28T00:03:12.208Z,0.31
2017-04-28T00:03:16.520Z,0.3
2017-04-28T00:03:20.953Z,0.31
2017-04-28T00:03:25.146Z,0.31
2017-04-28T00:03:29.574Z,0.31
2017-04-28T00:03:34.006Z,0.31
2017-04-28T00:03:38.439Z,0.31
2017-04-28T00:03:42.867Z,0.31
2017-04-28T00:03:47.310Z,0.3
2017-04-28T00:03:51.749Z,0.31
2017-04-28T00:03:56.174Z,0.31
2017-04-28T00:04:00.612Z,0.31
2017-04-28T00:04:05.077Z,0.31
2017-04-28T00:04:09.278Z,0.31
2017-04-28T00:04:13.358Z,0.3
2017-04-28T00:04:17.789Z,0.31
2017-04-28T00:04:22.283Z,0.3
2017-04-28T00:04:26.714Z,0.31
2017-04-28T00:04:31.144Z,0.3
2017-04-28T00:04:35.576Z,0.3
2017-04-28T00:04:40.006Z,0.31
2017-04-28T00:04:44.433Z,0.3
2017-04-28T00:04:48.867Z,0.29
2017-04-28T00:04:53.178Z,0.3
2017-04-28T00:04:57.496Z,0.31
2017-04-28T00:05:02.122Z,0.3
2017-04-28T00:05:06.439Z,0.29
2017-04-28T00:05:10.753Z,0.3
2017-04-28T00:05:15.073Z,0.29
2017-04-28T00:05:19.379Z,0.3
2017-04-28T00:05:23.809Z,0.3
2017-04-28T00:05:28.235Z,0.3
2017-04-28T00:05:32.668Z,0.3
2017-04-28T00:05:37.095Z,0.3
2017-04-28T00:05:41.303Z,0.3
2017-04-28T00:05:45.732Z,0.29
2017-04-28T00:05:50.160Z,0.29
2017-04-28T00:05:54.594Z,0.3
2017-04-28T00:05:59.018Z,0.29
2017-04-28T00:06:03.447Z,0.3
2017-04-28T00:06:07.884Z,0.29
2017-04-28T00:06:12.072Z,0.3
2017-04-28T00:06:16.389Z,0.29
2017-04-28T00:06:20.814Z,0.3
2017-04-28T00:06:25.121Z,0.29
2017-04-28T00:06:29.552Z,0.29
2017-04-28T00:06:33.981Z,0.3
2017-04-28T00:06:38.410Z,0.29
2017-04-28T00:06:42.837Z,0.3
2017-04-28T00:06:47.264Z,0.3
2017-04-28T00:06:51.686Z,0.31
2017-04-28T00:06:56.113Z,0.3
2017-04-28T00:07:00.581Z,0.29
2017-04-28T00:07:05.257Z,0.3
2017-04-28T00:07:09.565Z,0.29
2017-04-28T00:07:13.759Z,0.3
2017-04-28T00:07:18.191Z,0.29
2017-04-28T00:07:22.616Z,0.3
2017-04-28T00:07:27.044Z,0.29
2017-04-28T00:07:31.469Z,0.3
2017-04-28T00:07:35.780Z,0.3
2017-04-28T00:07:40.213Z,0.29
2017-04-28T00:07:44.648Z,0.3
2017-04-28T00:07:49.193Z,0.3
2017-04-28T00:07:53.625Z,0.29
2017-04-28T00:07:58.052Z,0.3
2017-04-28T00:08:02.621Z,0.3
2017-04-28T00:08:06.935Z,0.3
2017-04-28T00:08:11.249Z,0.3
2017-04-28T00:08:15.447Z,0.3
2017-04-28T00:08:19.887Z,0.3
2017-04-28T00:08:24.312Z,0.29
2017-04-28T00:08:28.739Z,0.29
2017-04-28T00:08:33.174Z,0.3
2017-04-28T00:08:37.611Z,0.3
2017-04-28T00:08:42.042Z,0.3
2017-04-28T00:08:46.464Z,0.3
2017-04-28T00:08:50.785Z,0.29
2017-04-28T00:08:55.221Z,0.3
2017-04-28T00:08:59.656Z,0.3
2017-04-28T00:09:04.231Z,0.3
2017-04-28T00:09:08.552Z,0.29
2017-04-28T00:09:13.022Z,0.29
2017-04-28T00:09:17.455Z,0.29
2017-04-28T00:09:21.891Z,0.29
2017-04-28T00:09:26.321Z,0.3
2017-04-28T00:09:30.758Z,0.29
2017-04-28T00:09:35.193Z,0.29
2017-04-28T00:09:39.385Z,0.29
2017-04-28T00:09:43.821Z,0.29
2017-04-28T00:09:48.261Z,0.28
2017-04-28T00:09:52.688Z,0.29
2017-04-28T00:09:57.118Z,0.29
2017-04-28T00:10:01.558Z,0.3
2017-04-28T00:10:06.234Z,0.29
2017-04-28T00:10:10.669Z,0.3
2017-04-28T00:10:14.858Z,0.29
2017-04-28T00:10:19.292Z,0.29
2017-04-28T00:10:23.498Z,0.29
2017-04-28T00:10:27.810Z,0.28
2017-04-28T00:10:32.232Z,0.29
2017-04-28T00:10:36.657Z,0.3
2017-04-28T00:10:41.100Z,0.28
2017-04-28T00:10:45.574Z,0.29
2017-04-28T00:10:50.003Z,0.29
2017-04-28T00:10:54.431Z,0.29
2017-04-28T00:10:58.869Z,0.28
2017-04-28T00:11:03.383Z,0.29
2017-04-28T00:11:07.573Z,0.29
2017-04-28T00:11:11.885Z,0.29
2017-04-28T00:11:16.079Z,0.29
2017-04-28T00:11:20.514Z,0.3
2017-04-28T00:11:24.943Z,0.29
2017-04-28T00:11:29.379Z,0.29
2017-04-28T00:11:33.811Z,0.3
2017-04-28T00:11:38.240Z,0.29
2017-04-28T00:11:42.667Z,0.29
2017-04-28T00:11:47.101Z,0.29
2017-04-28T00:11:51.526Z,0.28
2017-04-28T00:11:55.721Z,0.29
2017-04-28T00:12:00.191Z,0.3
2017-04-28T00:12:04.620Z,0.29
2017-04-28T00:12:08.938Z,0.29
2017-04-28T00:12:13.370Z,0.29
2017-04-28T00:12:17.721Z,0.3
2017-04-28T00:12:22.150Z,0.29
2017-04-28T00:12:26.585Z,0.28
2017-04-28T00:12:31.010Z,0.29
2017-04-28T00:12:35.442Z,0.28
2017-04-28T00:12:39.798Z,0.29
2017-04-28T00:12:44.106Z,0.29
2017-04-28T00:12:48.538Z,0.29
2017-04-28T00:12:53.015Z,0.29
2017-04-28T00:12:57.448Z,0.29
2017-04-28T00:13:01.884Z,0.29
2017-04-28T00:13:06.357Z,0.29
2017-04-28T00:13:10.558Z,0.29
2017-04-28T00:13:14.869Z,0.29
2017-04-28T00:13:19.179Z,0.28
2017-04-28T00:13:23.613Z,0.28
2017-04-28T00:13:28.046Z,0.3
2017-04-28T00:13:32.476Z,0.28
2017-04-28T00:13:36.797Z,0.29
2017-04-28T00:13:41.285Z,0.28
2017-04-28T00:13:45.715Z,0.28
2017-04-28T00:13:50.141Z,0.29
2017-04-28T00:13:54.575Z,0.28
2017-04-28T00:13:59.062Z,0.29
2017-04-28T00:14:03.847Z,0.29
2017-04-28T00:14:08.273Z,0.29
2017-04-28T00:14:12.706Z,0.28
2017-04-28T00:14:17.145Z,0.29
2017-04-28T00:14:21.458Z,0.29
2017-04-28T00:14:25.895Z,0.28
2017-04-28T00:14:30.331Z,0.28
2017-04-28T00:14:34.761Z,0.29
2017-04-28T00:14:39.184Z,0.29
2017-04-28T00:14:43.609Z,0.28
2017-04-28T00:14:48.042Z,0.29
2017-04-28T00:14:52.474Z,0.29
2017-04-28T00:14:56.916Z,0.29
2017-04-28T00:15:01.351Z,0.29
2017-04-28T00:15:05.659Z,0.29
2017-04-28T00:15:09.734Z,0.29
2017-04-28T00:15:14.049Z,0.28
2017-04-28T00:15:18.354Z,0.3
2017-04-28T00:15:22.660Z,0.29
2017-04-28T00:15:27.103Z,0.28
2017-04-28T00:15:31.527Z,0.29
2017-04-28T00:15:35.955Z,0.3
2017-04-28T00:15:40.400Z,0.29
2017-04-28T00:15:44.828Z,0.29
2017-04-28T00:15:49.254Z,0.29
2017-04-28T00:15:53.725Z,0.3
2017-04-28T00:15:58.156Z,0.3
2017-04-28T00:16:02.460Z,0.3
2017-04-28T00:16:06.887Z,0.29
2017-04-28T00:16:11.201Z,0.3
2017-04-28T00:16:15.394Z,0.3
2017-04-28T00:16:19.703Z,0.31
2017-04-28T00:16:24.139Z,0.3
2017-04-28T00:16:28.609Z,0.3
2017-04-28T00:16:32.930Z,0.31
2017-04-28T00:16:37.366Z,0.3
2017-04-28T00:16:41.685Z,0.3
2017-04-28T00:16:45.881Z,0.3
2017-04-28T00:16:50.305Z,0.3
2017-04-28T00:16:54.733Z,0.3
2017-04-28T00:16:59.160Z,0.3
2017-04-28T00:17:03.594Z,0.29
2017-04-28T00:17:08.025Z,0.31
2017-04-28T00:17:12.459Z,0.3
2017-04-28T00:17:16.770Z,0.3
2017-04-28T00:17:21.197Z,0.31
2017-04-28T00:17:25.629Z,0.3
2017-04-28T00:17:30.078Z,0.3
2017-04-28T00:17:34.392Z,0.31
2017-04-28T00:17:38.830Z,0.3
2017-04-28T00:17:43.157Z,0.31
2017-04-28T00:17:47.590Z,0.32
2017-04-28T00:17:52.269Z,0.31
2017-04-28T00:17:56.715Z,0.3
2017-04-28T00:18:01.141Z,0.31
2017-04-28T00:18:05.573Z,0.31
2017-04-28T00:18:10.023Z,0.31
2017-04-28T00:18:14.220Z,0.3
2017-04-28T00:18:18.524Z,0.31
2017-04-28T00:18:22.852Z,0.31
2017-04-28T00:18:27.278Z,0.31
2017-04-28T00:18:31.707Z,0.32
2017-04-28T00:18:36.142Z,0.32
2017-04-28T00:18:40.577Z,0.31
2017-04-28T00:18:45.010Z,0.32
2017-04-28T00:18:49.432Z,0.31
2017-04-28T00:18:53.869Z,0.32
2017-04-28T00:18:58.323Z,0.32
2017-04-28T00:19:02.516Z,0.32
2017-04-28T00:19:06.834Z,0.32
2017-04-28T00:19:11.296Z,0.31
2017-04-28T00:19:15.610Z,0.32
2017-04-28T00:19:20.048Z,0.31
2017-04-28T00:19:24.490Z,0.31
2017-04-28T00:19:28.916Z,0.31
2017-04-28T00:19:33.346Z,0.31
2017-04-28T00:19:37.773Z,0.32
2017-04-28T00:19:42.092Z,0.32
2017-04-28T00:19:46.520Z,0.32
2017-04-28T00:19:50.708Z,0.32
2017-04-28T00:19:55.153Z,0.32
2017-04-28T00:19:59.596Z,0.32
2017-04-28T00:20:04.109Z,0.33
2017-04-28T00:20:08.452Z,0.32
2017-04-28T00:20:12.768Z,0.32
2017-04-28T00:20:16.966Z,0.32
2017-04-28T00:20:21.284Z,0.32
2017-04-28T00:20:25.597Z,0.33
2017-04-28T00:20:30.025Z,0.32
2017-04-28T00:20:34.225Z,0.33
2017-04-28T00:20:38.646Z,0.33
2017-04-28T00:20:43.064Z,0.33
2017-04-28T00:20:47.500Z,0.33
2017-04-28T00:20:51.928Z,0.33
2017-04-28T00:20:56.354Z,0.33
2017-04-28T00:21:00.782Z,0.33
2017-04-28T00:21:05.095Z,0.33
2017-04-28T00:21:09.406Z,0.33
2017-04-28T00:21:13.711Z,0.32
2017-04-28T00:21:18.029Z,0.33
2017-04-28T00:21:22.224Z,0.33
2017-04-28T00:21:26.654Z,0.32
2017-04-28T00:21:31.084Z,0.33
2017-04-28T00:21:35.515Z,0.32
2017-04-28T00:21:39.822Z,0.33
2017-04-28T00:21:44.249Z,0.32
2017-04-28T00:21:48.676Z,0.33
2017-04-28T00:21:53.101Z,0.34
2017-04-28T00:21:57.540Z,0.33
2017-04-28T00:22:01.967Z,0.33
2017-04-28T00:22:06.288Z,0.33
2017-04-28T00:22:10.525Z,0.33
2017-04-28T00:22:14.834Z,0.33
2017-04-28T00:22:19.147Z,0.33
2017-04-28T00:22:23.457Z,0.32
2017-04-28T00:22:27.924Z,0.33
2017-04-28T00:22:32.228Z,0.33
2017-04-28T00:22:36.658Z,0.33
2017-04-28T00:22:41.090Z,0.33
2017-04-28T00:22:45.530Z,0.33
2017-04-28T00:22:50.185Z,0.33
2017-04-28T00:22:54.488Z,0.33
2017-04-28T00:22:58.915Z,0.34
2017-04-28T00:23:03.269Z,0.33
2017-04-28T00:23:07.581Z,0.33
2017-04-28T00:23:11.901Z,0.32
2017-04-28T00:23:16.091Z,0.33
2017-04-28T00:23:20.524Z,0.33
2017-04-28T00:23:24.949Z,0.34
2017-04-28T00:23:29.380Z,0.33
2017-04-28T00:23:33.713Z,0.32
2017-04-28T00:23:38.143Z,0.33
2017-04-28T00:23:42.573Z,0.33
2017-04-28T00:23:47.007Z,0.32
2017-04-28T00:23:51.481Z,0.32
2017-04-28T00:23:55.915Z,0.33
2017-04-28T00:24:00.240Z,0.33
2017-04-28T00:24:04.546Z,0.32
2017-04-28T00:24:08.978Z,0.32
2017-04-28T00:24:13.057Z,0.33
2017-04-28T00:24:17.483Z,0.33
2017-04-28T00:24:21.912Z,0.33
2017-04-28T00:24:26.226Z,0.33
2017-04-28T00:24:30.546Z,0.33
2017-04-28T00:24:34.854Z,0.33
2017-04-28T00:24:39.287Z,0.33
2017-04-28T00:24:43.711Z,0.33
2017-04-28T00:24:48.143Z,0.32
2017-04-28T00:24:52.575Z,0.33
2017-04-28T00:24:57.007Z,0.33
2017-04-28T00:25:01.432Z,0.33
2017-04-28T00:25:06.164Z,0.33
2017-04-28T00:25:10.482Z,0.33
2017-04-28T00:25:14.906Z,0.33
2017-04-28T00:25:19.329Z,0.33
2017-04-28T00:25:23.767Z,0.34
2017-04-28T00:25:28.190Z,0.32
2017-04-28T00:25:32.494Z,0.32
2017-04-28T00:25:36.970Z,0.33
2017-04-28T00:25:41.397Z,0.33
2017-04-28T00:25:45.834Z,0.32
2017-04-28T00:25:50.145Z,0.33
2017-04-28T00:25:54.572Z,0.32
2017-04-28T00:25:59.004Z,0.33
2017-04-28T00:26:03.463Z,0.32
2017-04-28T00:26:07.544Z,0.33
2017-04-28T00:26:11.854Z,0.33
2017-04-28T00:26:16.165Z,0.33
2017-04-28T00:26:20.596Z,0.33
2017-04-28T00:26:25.078Z,0.33
2017-04-28T00:26:29.503Z,0.32
2017-04-28T00:26:33.931Z,0.33
2017-04-28T00:26:38.363Z,0.33
2017-04-28T00:26:42.797Z,0.33
2017-04-28T00:26:47.108Z,0.33
2017-04-28T00:26:51.537Z,0.32
2017-04-28T00:26:55.960Z,0.32
2017-04-28T00:27:00.394Z,0.32
2017-04-28T00:27:04.821Z,0.33
2017-04-28T00:27:09.013Z,0.32
2017-04-28T00:27:13.467Z,0.33
2017-04-28T00:27:17.898Z,0.32
2017-04-28T00:27:22.334Z,0.32
2017-04-28T00:27:26.774Z,0.32
2017-04-28T00:27:31.201Z,0.33
2017-04-28T00:27:35.389Z,0.33
2017-04-28T00:27:39.829Z,0.32
2017-04-28T00:27:44.266Z,0.32
2017-04-28T00:27:48.697Z,0.32
2017-04-28T00:27:53.134Z,0.33
2017-04-28T00:27:57.570Z,0.32
2017-04-28T00:28:02.008Z,0.33
2017-04-28T00:28:06.326Z,0.32
2017-04-28T00:28:10.646Z,0.34
2017-04-28T00:28:15.078Z,0.32
2017-04-28T00:28:19.265Z,0.31
2017-04-28T00:28:23.690Z,0.32
2017-04-28T00:28:28.130Z,0.32
2017-04-28T00:28:32.565Z,0.32
2017-04-28T00:28:36.989Z,0.32
2017-04-28T00:28:41.423Z,0.31
2017-04-28T00:28:45.858Z,0.31
2017-04-28T00:28:50.325Z,0.32
2017-04-28T00:28:54.749Z,0.32
2017-04-28T00:28:59.178Z,0.32
2017-04-28T00:29:03.607Z,0.31
2017-04-28T00:29:07.936Z,0.32
2017-04-28T00:29:12.372Z,0.31
2017-04-28T00:29:16.799Z,0.31
2017-04-28T00:29:21.229Z,0.32
2017-04-28T00:29:25.669Z,0.31
2017-04-28T00:29:30.139Z,0.31
2017-04-28T00:29:34.562Z,0.31
2017-04-28T00:29:38.988Z,0.31
2017-04-28T00:29:43.429Z,0.32
2017-04-28T00:29:47.856Z,0.31
2017-04-28T00:29:52.166Z,0.31
2017-04-28T00:29:56.484Z,0.31
2017-04-28T00:30:00.919Z,0.31
2017-04-28T00:30:05.432Z,0.32
2017-04-28T00:30:09.511Z,0.32
2017-04-28T00:30:13.708Z,0.31
2017-04-28T00:30:18.143Z,0.31
2017-04-28T00:30:22.571Z,0.3
2017-04-28T00:30:26.878Z,0.32
2017-04-28T00:30:31.325Z,0.31
2017-04-28T00:30:35.754Z,0.31
2017-04-28T00:30:40.060Z,0.31
2017-04-28T00:30:44.389Z,0.31
2017-04-28T00:30:48.817Z,0.31
2017-04-28T00:30:53.127Z,0.32
2017-04-28T00:30:57.555Z,0.32
2017-04-28T00:31:02.114Z,0.31
2017-04-28T00:31:06.552Z,0.31
2017-04-28T00:31:10.869Z,0.32
2017-04-28T00:31:15.176Z,0.31
2017-04-28T00:31:19.614Z,0.31
2017-04-28T00:31:24.039Z,0.31
2017-04-28T00:31:28.463Z,0.32
2017-04-28T00:31:32.656Z,0.32
2017-04-28T00:31:37.092Z,0.31
2017-04-28T00:31:41.548Z,0.32
2017-04-28T00:31:45.975Z,0.31
2017-04-28T00:31:50.407Z,0.31
2017-04-28T00:31:54.841Z,0.32
2017-04-28T00:31:59.313Z,0.32
2017-04-28T00:32:03.987Z,0.31
2017-04-28T00:32:08.069Z,0.31
2017-04-28T00:32:12.501Z,0.32
2017-04-28T00:32:16.690Z,0.32
2017-04-28T00:32:21.008Z,0.31
2017-04-28T00:32:25.440Z,0.32
2017-04-28T00:32:29.887Z,0.31
2017-04-28T00:32:34.319Z,0.31
2017-04-28T00:32:38.762Z,0.31
2017-04-28T00:32:43.191Z,0.31
2017-04-28T00:32:47.658Z,0.3
2017-04-28T00:32:52.090Z,0.31
2017-04-28T00:32:56.518Z,0.31
2017-04-28T00:33:00.948Z,0.32
2017-04-28T00:33:05.478Z,0.31
2017-04-28T00:33:09.789Z,0.32
2017-04-28T00:33:14.224Z,0.31
2017-04-28T00:33:18.664Z,0.3
2017-04-28T00:33:23.103Z,0.31
2017-04-28T00:33:27.530Z,0.31
2017-04-28T00:33:31.951Z,0.31
2017-04-28T00:33:36.383Z,0.31
2017-04-28T00:33:40.863Z,0.31
2017-04-28T00:33:45.292Z,0.31
2017-04-28T00:33:49.725Z,0.31
2017-04-28T00:33:54.156Z,0.31
2017-04-28T00:33:58.599Z,0.3
2017-04-28T00:34:03.112Z,0.3
2017-04-28T00:34:07.548Z,0.31
2017-04-28T00:34:11.528Z,0.31
2017-04-28T00:34:15.957Z,0.31
2017-04-28T00:34:20.390Z,0.31
2017-04-28T00:34:24.729Z,0.31
2017-04-28T00:34:29.156Z,0.3
2017-04-28T00:34:33.593Z,0.3
2017-04-28T00:34:38.029Z,0.3
2017-04-28T00:34:42.457Z,0.3
2017-04-28T00:34:46.895Z,0.3
2017-04-28T00:34:51.325Z,0.31
2017-04-28T00:34:55.764Z,0.3
2017-04-28T00:35:00.188Z,0.31
2017-04-28T00:35:04.384Z,0.3
2017-04-28T00:35:08.585Z,0.3
2017-04-28T00:35:12.894Z,0.3
2017-04-28T00:35:17.208Z,0.3
2017-04-28T00:35:21.636Z,0.3
2017-04-28T00:35:26.070Z,0.29
2017-04-28T00:35:30.505Z,0.29
2017-04-28T00:35:34.932Z,0.3
2017-04-28T00:35:39.356Z,0.29
2017-04-28T00:35:43.790Z,0.29
2017-04-28T00:35:48.101Z,0.3
2017-04-28T00:35:52.528Z,0.3
2017-04-28T00:35:56.979Z,0.3
2017-04-28T00:36:01.408Z,0.3
2017-04-28T00:36:05.725Z,0.29
2017-04-28T00:36:09.805Z,0.3
2017-04-28T00:36:14.120Z,0.3
2017-04-28T00:36:18.552Z,0.29
2017-04-28T00:36:22.977Z,0.28
2017-04-28T00:36:27.416Z,0.29
2017-04-28T00:36:31.840Z,0.29
2017-04-28T00:36:36.271Z,0.29
2017-04-28T00:36:40.698Z,0.28
2017-04-28T00:36:45.125Z,0.29
2017-04-28T00:36:49.561Z,0.29
2017-04-28T00:36:53.872Z,0.29
2017-04-28T00:36:58.195Z,0.29
2017-04-28T00:37:02.631Z,0.29
2017-04-28T00:37:07.071Z,0.29
2017-04-28T00:37:11.387Z,0.29
2017-04-28T00:37:15.696Z,0.29
2017-04-28T00:37:20.019Z,0.29
2017-04-28T00:37:24.501Z,0.29
2017-04-28T00:37:28.935Z,0.29
2017-04-28T00:37:33.371Z,0.29
2017-04-28T00:37:37.690Z,0.29
2017-04-28T00:37:42.134Z,0.28
2017-04-28T00:37:46.449Z,0.29
2017-04-28T00:37:50.892Z,0.29
2017-04-28T00:37:55.530Z,0.28
2017-04-28T00:37:59.861Z,0.28
2017-04-28T00:38:04.339Z,0.28
2017-04-28T00:38:08.541Z,0.28
2017-04-28T00:38:12.747Z,0.27
2017-04-28T00:38:17.077Z,0.29
2017-04-28T00:38:21.511Z,0.28
2017-04-28T00:38:25.942Z,0.29
2017-04-28T00:38:30.377Z,0.28
2017-04-28T00:38:34.831Z,0.28
2017-04-28T00:38:39.266Z,0.28
2017-04-28T00:38:43.467Z,0.29
2017-04-28T00:38:47.903Z,0.28
2017-04-28T00:38:52.339Z,0.28
2017-04-28T00:38:56.774Z,0.28
2017-04-28T00:39:01.256Z,0.28
2017-04-28T00:39:05.689Z,0.28
2017-04-28T00:39:10.007Z,0.27
2017-04-28T00:39:14.448Z,0.28
2017-04-28T00:39:18.874Z,0.27
2017-04-28T00:39:23.310Z,0.28
2017-04-28T00:39:27.748Z,0.28
2017-04-28T00:39:32.186Z,0.27
2017-04-28T00:39:36.380Z,0.27
2017-04-28T00:39:40.695Z,0.27
2017-04-28T00:39:45.116Z,0.27
2017-04-28T00:39:49.542Z,0.27
2017-04-28T00:39:54.014Z,0.27
2017-04-28T00:39:58.440Z,0.28
2017-04-28T00:40:02.756Z,0.27
2017-04-28T00:40:07.066Z,0.27
2017-04-28T00:40:11.257Z,0.27
2017-04-28T00:40:15.342Z,0.26
2017-04-28T00:40:19.649Z,0.26
2017-04-28T00:40:23.967Z,0.27
2017-04-28T00:40:28.396Z,0.27
2017-04-28T00:40:32.592Z,0.27
2017-04-28T00:40:37.018Z,0.27
2017-04-28T00:40:41.439Z,0.28
2017-04-28T00:40:45.862Z,0.26
2017-04-28T00:40:50.297Z,0.27
2017-04-28T00:40:54.727Z,0.27
2017-04-28T00:40:59.160Z,0.26
2017-04-28T00:41:03.855Z,0.27
2017-04-28T00:41:08.297Z,0.27
2017-04-28T00:41:12.606Z,0.27
2017-04-28T00:41:16.949Z,0.27
2017-04-28T00:41:21.378Z,0.26
2017-04-28T00:41:25.693Z,0.27
2017-04-28T00:41:30.012Z,0.28
2017-04-28T00:41:34.443Z,0.27
2017-04-28T00:41:38.870Z,0.27
2017-04-28T00:41:43.298Z,0.27
2017-04-28T00:41:47.727Z,0.27
2017-04-28T00:41:52.187Z,0.27
2017-04-28T00:41:56.612Z,0.28
2017-04-28T00:42:01.039Z,0.27
2017-04-28T00:42:05.669Z,0.27
2017-04-28T00:42:09.982Z,0.27
2017-04-28T00:42:14.172Z,0.27
2017-04-28T00:42:18.370Z,0.27
2017-04-28T00:42:22.804Z,0.27
2017-04-28T00:42:27.233Z,0.27
2017-04-28T00:42:31.657Z,0.27
2017-04-28T00:42:36.090Z,0.27
2017-04-28T00:42:40.566Z,0.27
2017-04-28T00:42:44.997Z,0.28
2017-04-28T00:42:49.424Z,0.27
2017-04-28T00:42:53.862Z,0.28
2017-04-28T00:42:58.314Z,0.27
2017-04-28T00:43:02.998Z,0.27
2017-04-28T00:43:07.434Z,0.27
2017-04-28T00:43:11.894Z,0.27
2017-04-28T00:43:16.211Z,0.27
2017-04-28T00:43:20.414Z,0.27
2017-04-28T00:43:24.858Z,0.27
2017-04-28T00:43:29.335Z,0.28
2017-04-28T00:43:33.656Z,0.27
2017-04-28T00:43:38.081Z,0.26
2017-04-28T00:43:42.519Z,0.27
2017-04-28T00:43:46.951Z,0.27
2017-04-28T00:43:51.404Z,0.27
2017-04-28T00:43:55.837Z,0.27
2017-04-28T00:44:00.276Z,0.26
2017-04-28T00:44:04.812Z,0.27
2017-04-28T00:44:09.012Z,0.27
2017-04-28T00:44:13.331Z,0.26
2017-04-28T00:44:17.641Z,0.27
2017-04-28T00:44:21.964Z,0.26
2017-04-28T00:44:26.412Z,0.26
2017-04-28T00:44:30.847Z,0.26
2017-04-28T00:44:35.270Z,0.26
2017-04-28T00:44:39.706Z,0.25
2017-04-28T00:44:44.175Z,0.27
2017-04-28T00:44:48.603Z,0.26
2017-04-28T00:44:53.042Z,0.27
2017-04-28T00:44:57.397Z,0.26
2017-04-28T00:45:01.833Z,0.26
2017-04-28T00:45:06.256Z,0.26
2017-04-28T00:45:10.684Z,0.27
2017-04-28T00:45:15.104Z,0.26
2017-04-28T00:45:19.416Z,0.26
2017-04-28T00:45:23.848Z,0.25
2017-04-28T00:45:28.286Z,0.26
2017-04-28T00:45:32.726Z,0.26
2017-04-28T00:45:36.923Z,0.26
2017-04-28T00:45:41.355Z,0.26
2017-04-28T00:45:45.791Z,0.27
2017-04-28T00:45:50.214Z,0.27
2017-04-28T00:45:54.645Z,0.26
2017-04-28T00:45:59.093Z,0.26
2017-04-28T00:46:03.406Z,0.25
2017-04-28T00:46:07.839Z,0.26
2017-04-28T00:46:12.149Z,0.25
2017-04-28T00:46:16.455Z,0.26
2017-04-28T00:46:20.886Z,0.26
2017-04-28T00:46:25.328Z,0.26
2017-04-28T00:46:29.777Z,0.25
2017-04-28T00:46:34.201Z,0.25
2017-04-28T00:46:38.633Z,0.26
2017-04-28T00:46:43.066Z,0.25
2017-04-28T00:46:47.371Z,0.26
2017-04-28T00:46:51.793Z,0.26
2017-04-28T00:46:56.100Z,0.26
2017-04-28T00:47:00.429Z,0.26
2017-04-28T00:47:04.749Z,0.26
2017-04-28T00:47:08.823Z,0.25
2017-04-28T00:47:13.026Z,0.25
2017-04-28T00:47:17.458Z,0.25
2017-04-28T00:47:21.888Z,0.25
2017-04-28T00:47:26.317Z,0.25
2017-04-28T00:47:30.755Z,0.25
2017-04-28T00:47:35.187Z,0.26
2017-04-28T00:47:39.616Z,0.26
2017-04-28T00:47:44.054Z,0.26
2017-04-28T00:47:48.484Z,0.26
2017-04-28T00:47:52.712Z,0.24
2017-04-28T00:47:57.153Z,0.27
2017-04-28T00:48:01.469Z,0.25
2017-04-28T00:48:05.784Z,0.25
2017-04-28T00:48:09.989Z,0.25
2017-04-28T00:48:14.295Z,0.25
2017-04-28T00:48:18.725Z,0.26
2017-04-28T00:48:23.169Z,0.25
2017-04-28T00:48:27.620Z,0.25
2017-04-28T00:48:32.056Z,0.25
2017-04-28T00:48:36.484Z,0.25
2017-04-28T00:48:40.683Z,0.25
2017-04-28T00:48:45.116Z,0.25
2017-04-28T00:48:49.543Z,0.25
2017-04-28T00:48:53.977Z,0.25
2017-04-28T00:48:58.410Z,0.26
2017-04-28T00:49:02.850Z,0.25
2017-04-28T00:49:07.280Z,0.25
2017-04-28T00:49:11.597Z,0.25
2017-04-28T00:49:15.918Z,0.26
2017-04-28T00:49:20.354Z,0.25
2017-04-28T00:49:24.779Z,0.24
2017-04-28T00:49:29.208Z,0.25
2017-04-28T00:49:33.402Z,0.24
2017-04-28T00:49:37.837Z,0.24
2017-04-28T00:49:42.272Z,0.24
2017-04-28T00:49:46.699Z,0.25
2017-04-28T00:49:51.164Z,0.25
2017-04-28T00:49:55.479Z,0.24
2017-04-28T00:49:59.910Z,0.24
2017-04-28T00:50:04.225Z,0.25
2017-04-28T00:50:08.566Z,0.24
2017-04-28T00:50:12.884Z,0.24
2017-04-28T00:50:17.081Z,0.25
2017-04-28T00:50:21.521Z,0.24
2017-04-28T00:50:25.953Z,0.25
2017-04-28T00:50:30.151Z,0.24
2017-04-28T00:50:34.584Z,0.25
2017-04-28T00:50:38.911Z,0.24
2017-04-28T00:50:43.339Z,0.25
2017-04-28T00:50:47.764Z,0.24
2017-04-28T00:50:52.188Z,0.24
2017-04-28T00:50:56.615Z,0.24
2017-04-28T00:51:01.047Z,0.24
2017-04-28T00:51:05.473Z,0.24
2017-04-28T00:51:09.669Z,0.23
2017-04-28T00:51:14.104Z,0.24
2017-04-28T00:51:18.421Z,0.24
2017-04-28T00:51:22.848Z,0.24
2017-04-28T00:51:27.279Z,0.24
2017-04-28T00:51:31.704Z,0.24
2017-04-28T00:51:36.165Z,0.24
2017-04-28T00:51:40.594Z,0.25
2017-04-28T00:51:45.022Z,0.24
2017-04-28T00:51:49.447Z,0.24
2017-04-28T00:51:53.902Z,0.23
2017-04-28T00:51:58.094Z,0.24
2017-04-28T00:52:02.163Z,0.23
2017-04-28T00:52:06.471Z,0.24
2017-04-28T00:52:10.820Z,0.24
2017-04-28T00:52:15.128Z,0.23
2017-04-28T00:52:19.559Z,0.24
2017-04-28T00:52:23.993Z,0.24
2017-04-28T00:52:28.428Z,0.24
2017-04-28T00:52:32.866Z,0.24
2017-04-28T00:52:37.292Z,0.24
2017-04-28T00:52:41.740Z,0.24
2017-04-28T00:52:45.927Z,0.24
2017-04-28T00:52:50.359Z,0.24
2017-04-28T00:52:54.793Z,0.24
2017-04-28T00:52:59.583Z,0.24
2017-04-28T00:53:04.021Z,0.23
2017-04-28T00:53:08.341Z,0.23
2017-04-28T00:53:12.772Z,0.24
2017-04-28T00:53:17.206Z,0.24
2017-04-28T00:53:21.642Z,0.24
2017-04-28T00:53:26.071Z,0.24
2017-04-28T00:53:30.504Z,0.23
2017-04-28T00:53:34.957Z,0.23
2017-04-28T00:53:39.391Z,0.23
2017-04-28T00:53:43.822Z,0.23
2017-04-28T00:53:48.284Z,0.24
2017-04-28T00:53:52.717Z,0.25
2017-04-28T00:53:57.144Z,0.23
2017-04-28T00:54:01.572Z,0.24
2017-04-28T00:54:06.211Z,0.24
2017-04-28T00:54:10.410Z,0.23
2017-04-28T00:54:14.610Z,0.24
2017-04-28T00:54:18.801Z,0.23
2017-04-28T00:54:23.282Z,0.24
2017-04-28T00:54:27.717Z,0.24
2017-04-28T00:54:32.148Z,0.24
2017-04-28T00:54:36.462Z,0.24
2017-04-28T00:54:40.904Z,0.23
2017-04-28T00:54:45.334Z,0.23
2017-04-28T00:54:49.773Z,0.23
2017-04-28T00:54:54.202Z,0.24
2017-04-28T00:54:58.645Z,0.23
2017-04-28T00:55:03.254Z,0.23
2017-04-28T00:55:07.325Z,0.23
2017-04-28T00:55:11.752Z,0.23
2017-04-28T00:55:16.066Z,0.23
2017-04-28T00:55:20.493Z,0.22
2017-04-28T00:55:24.920Z,0.22
2017-04-28T00:55:29.346Z,0.23
2017-04-28T00:55:33.771Z,0.23
2017-04-28T00:55:38.205Z,0.23
2017-04-28T00:55:42.634Z,0.22
2017-04-28T00:55:47.058Z,0.23
2017-04-28T00:55:51.364Z,0.23
2017-04-28T00:55:55.799Z,0.23
2017-04-28T00:56:00.220Z,0.22
2017-04-28T00:56:04.636Z,0.22
2017-04-28T00:56:08.730Z,0.23
2017-04-28T00:56:12.952Z,0.22
2017-04-28T00:56:17.270Z,0.24
2017-04-28T00:56:21.698Z,0.23
2017-04-28T00:56:26.008Z,0.23
2017-04-28T00:56:30.431Z,0.23
2017-04-28T00:56:34.858Z,0.23
2017-04-28T00:56:39.291Z,0.23
2017-04-28T00:56:43.606Z,0.24
2017-04-28T00:56:48.047Z,0.23
2017-04-28T00:56:52.474Z,0.24
2017-04-28T00:56:56.909Z,0.23
2017-04-28T00:57:01.335Z,0.23
2017-04-28T00:57:06.065Z,0.23
2017-04-28T00:57:10.375Z,0.23
2017-04-28T00:57:14.807Z,0.23
2017-04-28T00:57:19.149Z,0.22
2017-04-28T00:57:23.340Z,0.22
2017-04-28T00:57:27.763Z,0.23
2017-04-28T00:57:32.071Z,0.22
2017-04-28T00:57:36.542Z,0.22
2017-04-28T00:57:40.985Z,0.23
2017-04-28T00:57:45.409Z,0.23
2017-04-28T00:57:49.846Z,0.23
2017-04-28T00:57:54.299Z,0.22
2017-04-28T00:57:58.739Z,0.23
2017-04-28T00:58:03.518Z,0.23
2017-04-28T00:58:07.844Z,0.22
2017-04-28T00:58:12.162Z,0.23
2017-04-28T00:58:16.594Z,0.22
2017-04-28T00:58:20.898Z,0.23
2017-04-28T00:58:25.335Z,0.22
2017-04-28T00:58:29.780Z,0.23
2017-04-28T00:58:34.212Z,0.22
2017-04-28T00:58:38.648Z,0.22
2017-04-28T00:58:43.090Z,0.21